createdAt,value
2023-02-23T00:00:13.374Z,25
2023-02-23T00:01:13.373Z,25
2023-02-23T00:02:13.433Z,26
2023-02-23T00:03:13.408Z,27
2023-02-23T00:04:13.372Z,25
2023-02-23T00:05:13.382Z,26
2023-02-23T00:06:13.433Z,25
2023-02-23T00:07:13.370Z,25
2023-02-23T00:08:13.398Z,27
2023-02-23T00:09:13.389Z,28
2023-02-23T00:10:13.390Z,27
2023-02-23T00:11:13.385Z,25
2023-02-23T00:12:13.363Z,25
2023-02-23T00:13:13.366Z,25
2023-02-23T00:14:13.383Z,26
2023-02-23T00:15:13.376Z,26
2023-02-23T00:16:13.404Z,25
2023-02-23T00:17:13.369Z,26
2023-02-23T00:18:13.375Z,26
2023-02-23T00:19:13.445Z,26
2023-02-23T00:20:13.380Z,27
2023-02-23T00:21:13.365Z,26
2023-02-23T00:22:13.377Z,26
2023-02-23T00:23:13.495Z,27
2023-02-23T00:24:13.368Z,26
2023-02-23T00:25:13.375Z,28
2023-02-23T00:26:13.377Z,26
2023-02-23T00:27:13.385Z,27
2023-02-23T00:28:13.372Z,27
2023-02-23T00:29:13.387Z,26
2023-02-23T00:30:13.379Z,26
2023-02-23T00:31:13.399Z,26
2023-02-23T00:32:13.493Z,24
2023-02-23T00:33:13.380Z,26
2023-02-23T00:34:13.379Z,25
2023-02-23T00:35:13.378Z,27
2023-02-23T00:36:13.393Z,27
2023-02-23T00:37:13.383Z,27
2023-02-23T00:38:13.383Z,28
2023-02-23T00:39:13.377Z,28
2023-02-23T00:40:13.422Z,27
2023-02-23T00:41:14.436Z,28
2023-02-23T00:42:13.389Z,28
2023-02-23T00:43:13.381Z,27
2023-02-23T00:44:13.376Z,26
2023-02-23T00:45:13.402Z,27
2023-02-23T00:46:13.425Z,27
2023-02-23T00:47:13.394Z,26
2023-02-23T00:48:13.404Z,26
2023-02-23T00:49:13.406Z,26
2023-02-23T00:50:13.383Z,29
2023-02-23T00:51:13.410Z,27
2023-02-23T00:52:13.387Z,27
2023-02-23T00:53:13.382Z,28
2023-02-23T00:54:13.398Z,27
2023-02-23T00:55:13.395Z,28
2023-02-23T00:56:13.384Z,28
2023-02-23T00:57:13.396Z,27
2023-02-23T00:58:13.379Z,26
2023-02-23T00:59:13.402Z,28
2023-02-23T01:00:13.395Z,26
2023-02-23T01:01:13.422Z,28
2023-02-23T01:02:13.460Z,27
2023-02-23T01:03:13.386Z,28
2023-02-23T01:04:13.384Z,29
2023-02-23T01:05:13.448Z,29
2023-02-23T01:06:13.396Z,31
2023-02-23T01:07:13.401Z,29
2023-02-23T01:08:13.388Z,28
2023-02-23T01:09:13.386Z,31
2023-02-23T01:10:13.379Z,29
2023-02-23T01:11:13.435Z,29
2023-02-23T01:12:13.382Z,27
2023-02-23T01:13:13.388Z,29
2023-02-23T01:15:13.375Z,29
2023-02-23T01:16:13.384Z,28
2023-02-23T01:17:13.386Z,28
2023-02-23T01:18:13.379Z,29
2023-02-23T01:19:13.391Z,28
2023-02-23T01:20:13.380Z,28
2023-02-23T01:21:13.379Z,29
2023-02-23T01:22:13.383Z,29
2023-02-23T01:23:13.379Z,30
2023-02-23T01:24:13.391Z,31
2023-02-23T01:25:13.376Z,28
2023-02-23T01:26:13.366Z,30
2023-02-23T01:27:13.382Z,30
2023-02-23T01:28:13.403Z,30
2023-02-23T01:29:13.400Z,29
2023-02-23T01:30:13.391Z,30
2023-02-23T01:31:13.480Z,31
2023-02-23T01:32:13.523Z,30
2023-02-23T01:33:13.385Z,28
2023-02-23T01:34:13.390Z,29
2023-02-23T01:35:13.377Z,30
2023-02-23T01:36:13.384Z,30
2023-02-23T01:37:13.375Z,31
2023-02-23T01:38:13.386Z,31
2023-02-23T01:39:13.384Z,28
2023-02-23T01:40:13.398Z,30
2023-02-23T01:41:13.383Z,31
2023-02-23T01:42:13.415Z,32
2023-02-23T01:43:13.385Z,32
2023-02-23T01:44:13.380Z,32
2023-02-23T01:45:13.389Z,31
2023-02-23T01:46:13.460Z,30
2023-02-23T01:47:13.370Z,32
2023-02-23T01:48:13.389Z,31
2023-02-23T01:49:13.394Z,30
2023-02-23T01:50:13.377Z,31
2023-02-23T01:51:13.411Z,31
2023-02-23T01:52:13.380Z,31
2023-02-23T01:53:13.379Z,31
2023-02-23T01:54:13.391Z,31
2023-02-23T01:55:13.391Z,30
2023-02-23T01:56:13.396Z,32
2023-02-23T01:57:13.387Z,33
2023-02-23T01:58:13.415Z,33
2023-02-23T01:59:13.390Z,33
2023-02-23T02:00:13.378Z,31
2023-02-23T02:01:13.407Z,30
2023-02-23T02:02:13.465Z,31
2023-02-23T02:03:13.380Z,32
2023-02-23T02:04:13.378Z,33
2023-02-23T02:05:13.460Z,32
2023-02-23T02:06:13.380Z,33
2023-02-23T02:07:13.376Z,33
2023-02-23T02:08:13.395Z,32
2023-02-23T02:09:13.395Z,34
2023-02-23T02:10:13.388Z,33
2023-02-23T02:11:13.391Z,33
2023-02-23T02:12:13.390Z,33
2023-02-23T02:13:13.412Z,32
2023-02-23T02:14:13.389Z,33
2023-02-23T02:15:13.389Z,33
2023-02-23T02:16:13.450Z,31
2023-02-23T02:17:13.381Z,31
2023-02-23T02:18:13.389Z,31
2023-02-23T02:19:13.389Z,32
2023-02-23T02:20:13.382Z,31
2023-02-23T02:21:13.393Z,30
2023-02-23T02:22:13.373Z,32
2023-02-23T02:23:13.390Z,33
2023-02-23T02:24:13.391Z,32
2023-02-23T02:25:13.425Z,31
2023-02-23T02:26:13.388Z,30
2023-02-23T02:27:13.404Z,32
2023-02-23T02:28:13.399Z,31
2023-02-23T02:29:13.391Z,32
2023-02-23T02:30:13.447Z,31
2023-02-23T02:31:13.452Z,32
2023-02-23T02:32:13.451Z,31
2023-02-23T02:33:13.394Z,33
2023-02-23T02:34:13.389Z,32
2023-02-23T02:35:13.386Z,32
2023-02-23T02:36:13.382Z,32
2023-02-23T02:37:13.416Z,33
2023-02-23T02:38:13.389Z,32
2023-02-23T02:39:13.387Z,32
2023-02-23T02:40:13.465Z,32
2023-02-23T02:41:13.404Z,31
2023-02-23T02:42:13.380Z,33
2023-02-23T02:43:13.392Z,33
2023-02-23T02:44:13.420Z,32
2023-02-23T02:45:13.393Z,32
2023-02-23T02:46:13.421Z,34
2023-02-23T02:47:13.388Z,31
2023-02-23T02:48:13.383Z,32
2023-02-23T02:49:13.393Z,32
2023-02-23T02:50:13.388Z,34
2023-02-23T02:51:13.379Z,32
2023-02-23T02:52:13.395Z,32
2023-02-23T02:53:13.397Z,31
2023-02-23T02:54:13.395Z,30
2023-02-23T02:55:13.393Z,31
2023-02-23T02:56:13.398Z,29
2023-02-23T02:57:13.388Z,31
2023-02-23T02:58:13.489Z,32
2023-02-23T02:59:13.390Z,32
2023-02-23T03:00:13.391Z,31
2023-02-23T03:01:13.429Z,31
2023-02-23T03:02:13.385Z,32
2023-02-23T03:03:13.392Z,33
2023-02-23T03:04:13.407Z,32
2023-02-23T03:05:13.446Z,32
2023-02-23T03:06:13.403Z,32
2023-02-23T03:07:13.396Z,31
2023-02-23T03:08:13.397Z,32
2023-02-23T03:09:13.402Z,31
2023-02-23T03:10:13.399Z,32
2023-02-23T03:11:13.400Z,31
2023-02-23T03:12:13.393Z,32
2023-02-23T03:13:13.405Z,32
2023-02-23T03:14:13.424Z,30
2023-02-23T03:15:13.489Z,31
2023-02-23T03:16:13.450Z,34
2023-02-23T03:17:13.396Z,32
2023-02-23T03:18:13.396Z,31
2023-02-23T03:19:13.403Z,32
2023-02-23T03:20:13.390Z,32
2023-02-23T03:21:13.390Z,31
2023-02-23T03:22:13.394Z,31
2023-02-23T03:23:13.403Z,31
2023-02-23T03:24:13.395Z,33
2023-02-23T03:25:13.389Z,32
2023-02-23T03:26:13.409Z,33
2023-02-23T03:27:13.401Z,33
2023-02-23T03:28:13.397Z,33
2023-02-23T03:29:13.400Z,33
2023-02-23T03:30:13.416Z,33
2023-02-23T03:31:13.437Z,34
2023-02-23T03:32:13.556Z,33
2023-02-23T03:33:13.395Z,33
2023-02-23T03:34:13.405Z,33
2023-02-23T03:35:13.400Z,32
2023-02-23T03:36:13.390Z,33
2023-02-23T03:37:13.399Z,35
2023-02-23T03:38:13.395Z,34
2023-02-23T03:39:13.404Z,34
2023-02-23T03:40:13.413Z,33
2023-02-23T03:41:13.404Z,36
2023-02-23T03:42:13.406Z,33
2023-02-23T03:43:13.404Z,34
2023-02-23T03:44:13.403Z,35
2023-02-23T03:45:13.393Z,34
2023-02-23T03:46:13.428Z,33
2023-02-23T03:47:13.615Z,32
2023-02-23T03:48:13.394Z,36
2023-02-23T03:49:13.405Z,35
2023-02-23T03:50:13.410Z,35
2023-02-23T03:51:13.400Z,34
2023-02-23T03:52:13.397Z,33
2023-02-23T03:53:13.400Z,33
2023-02-23T03:54:13.398Z,32
2023-02-23T03:55:13.402Z,31
2023-02-23T03:56:13.391Z,30
2023-02-23T03:57:13.394Z,32
2023-02-23T03:58:13.402Z,31
2023-02-23T03:59:13.396Z,32
2023-02-23T04:00:13.410Z,34
2023-02-23T04:01:13.392Z,33
2023-02-23T04:02:13.612Z,33
2023-02-23T04:03:13.435Z,33
2023-02-23T04:04:13.392Z,34
2023-02-23T04:05:13.402Z,34
2023-02-23T04:06:13.395Z,35
2023-02-23T04:07:13.398Z,35
2023-02-23T04:08:13.418Z,34
2023-02-23T04:09:13.396Z,35
2023-02-23T04:10:13.391Z,34
2023-02-23T04:11:13.400Z,35
2023-02-23T04:12:13.406Z,34
2023-02-23T04:13:13.402Z,35
2023-02-23T04:14:13.481Z,33
2023-02-23T04:15:13.399Z,35
2023-02-23T04:16:13.524Z,35
2023-02-23T04:17:13.425Z,36
2023-02-23T04:18:13.400Z,35
2023-02-23T04:19:13.401Z,36
2023-02-23T04:20:13.467Z,34
2023-02-23T04:21:13.446Z,35
2023-02-23T04:22:13.397Z,35
2023-02-23T04:23:13.402Z,37
2023-02-23T04:24:13.396Z,34
2023-02-23T04:25:13.413Z,35
2023-02-23T04:26:13.401Z,35
2023-02-23T04:27:13.411Z,36
2023-02-23T04:28:13.404Z,36
2023-02-23T04:29:13.405Z,36
2023-02-23T04:30:13.397Z,35
2023-02-23T04:31:13.405Z,35
2023-02-23T04:32:13.573Z,34
2023-02-23T04:33:13.398Z,36
2023-02-23T04:34:13.401Z,37
2023-02-23T04:35:13.411Z,37
2023-02-23T04:36:13.406Z,35
2023-02-23T04:37:13.426Z,36
2023-02-23T04:38:13.407Z,37
2023-02-23T04:39:13.404Z,36
2023-02-23T04:40:13.409Z,36
2023-02-23T04:41:13.410Z,37
2023-02-23T04:42:13.407Z,35
2023-02-23T04:43:13.408Z,36
2023-02-23T04:44:13.411Z,37
2023-02-23T04:45:13.406Z,38
2023-02-23T04:46:13.476Z,36
2023-02-23T04:47:13.409Z,35
2023-02-23T04:48:13.504Z,34
2023-02-23T04:49:13.407Z,36
2023-02-23T04:50:13.481Z,35
2023-02-23T04:51:13.409Z,36
2023-02-23T04:52:13.413Z,35
2023-02-23T04:53:13.419Z,37
2023-02-23T04:54:13.421Z,36
2023-02-23T04:55:13.408Z,36
2023-02-23T04:56:13.410Z,35
2023-02-23T04:57:13.404Z,36
2023-02-23T04:58:13.420Z,35
2023-02-23T04:59:13.400Z,35
2023-02-23T05:00:13.410Z,34
2023-02-23T05:01:13.483Z,36
2023-02-23T05:02:13.415Z,34
2023-02-23T05:03:13.396Z,34
2023-02-23T05:04:13.396Z,36
2023-02-23T05:05:13.407Z,33
2023-02-23T05:06:13.409Z,35
2023-02-23T05:07:13.405Z,34
2023-02-23T05:08:13.414Z,34
2023-02-23T05:09:13.438Z,33
2023-02-23T05:10:13.435Z,34
2023-02-23T05:11:13.417Z,35
2023-02-23T05:12:13.415Z,34
2023-02-23T05:13:13.413Z,35
2023-02-23T05:14:13.405Z,35
2023-02-23T05:15:13.415Z,38
2023-02-23T05:16:13.610Z,34
2023-02-23T05:17:13.415Z,34
2023-02-23T05:18:13.404Z,34
2023-02-23T05:19:13.503Z,35
2023-02-23T05:20:13.562Z,36
2023-02-23T05:21:13.409Z,34
2023-02-23T05:22:13.402Z,33
2023-02-23T05:23:13.419Z,36
2023-02-23T05:24:13.415Z,35
2023-02-23T05:25:13.414Z,36
2023-02-23T05:26:13.406Z,34
2023-02-23T05:27:13.414Z,36
2023-02-23T05:28:13.425Z,37
2023-02-23T05:29:13.407Z,36
2023-02-23T05:30:13.416Z,37
2023-02-23T05:31:13.504Z,36
2023-02-23T05:32:13.617Z,35
2023-02-23T05:33:13.410Z,35
2023-02-23T05:34:13.407Z,35
2023-02-23T05:35:13.420Z,35
2023-02-23T05:36:13.443Z,34
2023-02-23T05:37:13.412Z,35
2023-02-23T05:38:13.408Z,35
2023-02-23T05:39:13.415Z,36
2023-02-23T05:40:13.404Z,34
2023-02-23T05:41:13.414Z,35
2023-02-23T05:42:13.413Z,34
2023-02-23T05:43:13.408Z,33
2023-02-23T05:44:13.408Z,36
2023-02-23T05:45:13.549Z,35
2023-02-23T05:46:13.546Z,34
2023-02-23T05:47:13.426Z,35
2023-02-23T05:48:13.406Z,35
2023-02-23T05:49:13.406Z,36
2023-02-23T05:50:13.441Z,36
2023-02-23T05:51:13.411Z,35
2023-02-23T05:52:13.420Z,37
2023-02-23T05:53:13.526Z,36
2023-02-23T05:54:13.449Z,34
2023-02-23T05:55:13.410Z,35
2023-02-23T05:56:13.417Z,36
2023-02-23T05:57:13.413Z,36
2023-02-23T05:58:13.423Z,36
2023-02-23T05:59:13.431Z,35
2023-02-23T06:00:13.497Z,35
2023-02-23T06:01:13.413Z,34
2023-02-23T06:02:13.446Z,34
2023-02-23T06:03:13.420Z,34
2023-02-23T06:04:13.412Z,34
2023-02-23T06:05:13.413Z,35
2023-02-23T06:06:13.426Z,35
2023-02-23T06:07:13.439Z,35
2023-02-23T06:08:13.595Z,34
2023-02-23T06:09:13.422Z,34
2023-02-23T06:10:13.415Z,33
2023-02-23T06:11:13.409Z,37
2023-02-23T06:12:13.425Z,34
2023-02-23T06:13:13.424Z,37
2023-02-23T06:14:13.437Z,34
2023-02-23T06:15:13.421Z,36
2023-02-23T06:16:13.518Z,36
2023-02-23T06:17:13.419Z,35
2023-02-23T06:18:13.418Z,35
2023-02-23T06:19:13.415Z,36
2023-02-23T06:20:13.414Z,35
2023-02-23T06:21:13.431Z,36
2023-02-23T06:22:13.411Z,36
2023-02-23T06:23:13.413Z,34
2023-02-23T06:24:13.415Z,38
2023-02-23T06:25:13.502Z,35
2023-02-23T06:26:13.417Z,35
2023-02-23T06:27:13.412Z,38
2023-02-23T06:28:13.416Z,37
2023-02-23T06:29:13.410Z,36
2023-02-23T06:30:13.428Z,36
2023-02-23T06:31:13.468Z,35
2023-02-23T06:32:13.606Z,35
2023-02-23T06:33:13.419Z,39
2023-02-23T06:34:13.427Z,37
2023-02-23T06:35:13.507Z,38
2023-02-23T06:36:13.417Z,37
2023-02-23T06:37:13.415Z,37
2023-02-23T06:38:13.421Z,36
2023-02-23T06:39:13.414Z,37
2023-02-23T06:40:13.418Z,38
2023-02-23T06:41:13.412Z,36
2023-02-23T06:42:13.424Z,36
2023-02-23T06:43:13.424Z,37
2023-02-23T06:44:13.412Z,39
2023-02-23T06:45:13.421Z,38
2023-02-23T06:46:13.474Z,37
2023-02-23T06:47:13.446Z,37
2023-02-23T06:49:16.221Z,36
2023-02-23T06:50:13.451Z,37
2023-02-23T06:52:13.441Z,38
2023-02-23T06:53:13.420Z,37
2023-02-23T06:54:13.413Z,38
2023-02-23T06:55:13.471Z,37
2023-02-23T06:56:13.413Z,36
2023-02-23T06:57:13.425Z,37
2023-02-23T06:58:13.425Z,38
2023-02-23T06:59:13.426Z,36
2023-02-23T07:00:13.414Z,36
2023-02-23T07:01:13.408Z,38
2023-02-23T07:02:13.432Z,37
2023-02-23T07:04:16.231Z,38
2023-02-23T07:05:13.444Z,38
2023-02-23T07:06:13.417Z,37
2023-02-23T07:07:13.420Z,37
2023-02-23T07:09:13.418Z,37
2023-02-23T07:10:13.418Z,38
2023-02-23T07:11:13.421Z,37
2023-02-23T07:12:13.417Z,39
2023-02-23T07:13:13.422Z,40
2023-02-23T07:14:21.489Z,38
2023-02-23T07:15:13.423Z,38
2023-02-23T07:16:13.541Z,37
2023-02-23T07:17:13.437Z,38
2023-02-23T07:18:13.418Z,38
2023-02-23T07:20:13.411Z,40
2023-02-23T07:21:13.410Z,38
2023-02-23T07:22:13.427Z,37
2023-02-23T07:23:13.450Z,38
2023-02-23T07:24:13.442Z,36
2023-02-23T07:25:13.406Z,38
2023-02-23T07:26:13.411Z,39
2023-02-23T07:27:13.432Z,38
2023-02-23T07:28:13.420Z,39
2023-02-23T07:29:13.413Z,36
2023-02-23T07:30:13.433Z,38
2023-02-23T07:31:13.471Z,37
2023-02-23T07:32:13.512Z,37
2023-02-23T07:33:13.422Z,36
2023-02-23T07:34:13.414Z,38
2023-02-23T07:35:13.421Z,36
2023-02-23T07:36:13.419Z,37
2023-02-23T07:37:13.424Z,36
2023-02-23T07:38:13.416Z,35
2023-02-23T07:39:13.436Z,36
2023-02-23T07:40:13.426Z,36
2023-02-23T07:41:13.429Z,36
2023-02-23T07:42:13.423Z,38
2023-02-23T07:43:13.425Z,36
2023-02-23T07:44:13.437Z,37
2023-02-23T07:45:13.473Z,38
2023-02-23T07:46:13.453Z,37
2023-02-23T07:47:13.430Z,39
2023-02-23T07:48:13.419Z,42
2023-02-23T07:49:13.425Z,40
2023-02-23T07:50:13.440Z,40
2023-02-23T07:51:13.426Z,40
2023-02-23T07:52:13.435Z,39
2023-02-23T07:53:13.429Z,39
2023-02-23T07:54:13.459Z,36
2023-02-23T07:55:13.429Z,37
2023-02-23T07:56:13.425Z,39
2023-02-23T07:57:13.451Z,38
2023-02-23T07:58:13.423Z,37
2023-02-23T07:59:13.421Z,37
2023-02-23T08:00:13.440Z,38
2023-02-23T08:01:13.446Z,39
2023-02-23T08:02:13.425Z,36
2023-02-23T08:03:13.423Z,39
2023-02-23T08:04:13.466Z,37
2023-02-23T08:05:13.430Z,38
2023-02-23T08:06:13.425Z,36
2023-02-23T08:07:13.442Z,37
2023-02-23T08:08:13.429Z,35
2023-02-23T08:09:13.434Z,36
2023-02-23T08:10:13.426Z,37
2023-02-23T08:11:13.432Z,37
2023-02-23T08:12:13.452Z,37
2023-02-23T08:13:13.449Z,34
2023-02-23T08:14:13.427Z,37
2023-02-23T08:15:13.427Z,38
2023-02-23T08:16:13.437Z,37
2023-02-23T08:17:13.434Z,37
2023-02-23T08:18:13.479Z,37
2023-02-23T08:19:13.435Z,36
2023-02-23T08:20:13.436Z,36
2023-02-23T08:21:13.640Z,36
2023-02-23T08:22:13.439Z,36
2023-02-23T08:23:13.438Z,38
2023-02-23T08:24:13.431Z,34
2023-02-23T08:25:13.464Z,36
2023-02-23T08:26:13.435Z,37
2023-02-23T08:27:13.431Z,37
2023-02-23T08:28:13.437Z,37
2023-02-23T08:29:13.447Z,38
2023-02-23T08:30:13.438Z,41
2023-02-23T08:31:13.494Z,36
2023-02-23T08:32:13.527Z,34
2023-02-23T08:33:13.429Z,42
2023-02-23T08:34:13.427Z,40
2023-02-23T08:35:13.435Z,43
2023-02-23T08:36:13.428Z,39
2023-02-23T08:37:13.429Z,41
2023-02-23T08:38:13.431Z,44
2023-02-23T08:39:13.459Z,40
2023-02-23T08:40:13.445Z,38
2023-02-23T08:41:13.441Z,40
2023-02-23T08:42:15.361Z,38
2023-02-23T08:43:13.437Z,40
2023-02-23T08:44:13.427Z,41
2023-02-23T08:45:13.463Z,31
2023-02-23T08:46:13.472Z,37
2023-02-23T08:47:13.429Z,36
2023-02-23T08:48:13.426Z,30
2023-02-23T08:49:13.427Z,35
2023-02-23T08:50:13.425Z,34
2023-02-23T08:51:13.426Z,36
2023-02-23T08:52:13.430Z,41
2023-02-23T08:53:13.426Z,32
2023-02-23T08:54:13.426Z,36
2023-02-23T08:55:13.425Z,38
2023-02-23T08:56:13.469Z,31
2023-02-23T08:57:13.432Z,39
2023-02-23T08:58:13.433Z,39
2023-02-23T08:59:13.434Z,38
2023-02-23T09:00:13.423Z,38
2023-02-23T09:01:13.484Z,37
2023-02-23T09:02:13.446Z,35
2023-02-23T09:03:13.432Z,35
2023-02-23T09:04:13.431Z,33
2023-02-23T09:05:13.501Z,36
2023-02-23T09:06:13.428Z,31
2023-02-23T09:07:13.429Z,34
2023-02-23T09:08:13.468Z,33
2023-02-23T09:09:13.451Z,30
2023-02-23T09:10:13.454Z,33
2023-02-23T09:11:13.440Z,30
2023-02-23T09:12:13.436Z,27
2023-02-23T09:13:13.432Z,31
2023-02-23T09:14:13.431Z,29
2023-02-23T09:15:13.466Z,30
2023-02-23T09:16:13.497Z,29
2023-02-23T09:17:13.440Z,30
2023-02-23T09:18:13.424Z,30
2023-02-23T09:19:13.426Z,29
2023-02-23T09:20:13.449Z,25
2023-02-23T09:21:13.439Z,28
2023-02-23T09:22:13.430Z,28
2023-02-23T09:23:13.446Z,29
2023-02-23T09:24:13.435Z,29
2023-02-23T09:25:13.433Z,30
2023-02-23T09:26:13.431Z,29
2023-02-23T09:27:13.512Z,29
2023-02-23T09:28:13.431Z,28
2023-02-23T09:29:13.428Z,28
2023-02-23T09:30:13.439Z,30
2023-02-23T09:31:13.606Z,28
2023-02-23T09:32:13.533Z,28
2023-02-23T09:33:13.449Z,29
2023-02-23T09:34:13.479Z,28
2023-02-23T09:35:13.445Z,27
2023-02-23T09:36:13.448Z,27
2023-02-23T09:37:13.429Z,27
2023-02-23T09:38:13.442Z,25
2023-02-23T09:39:13.436Z,27
2023-02-23T09:40:13.426Z,27
2023-02-23T09:41:13.432Z,27
2023-02-23T09:42:13.430Z,25
2023-02-23T09:43:13.431Z,26
2023-02-23T09:44:13.446Z,24
2023-02-23T09:45:13.432Z,24
2023-02-23T09:46:13.507Z,26
2023-02-23T09:47:13.427Z,23
2023-02-23T09:48:13.428Z,25
2023-02-23T09:49:13.439Z,25
2023-02-23T09:50:13.428Z,26
2023-02-23T09:51:13.435Z,24
2023-02-23T09:52:13.740Z,25
2023-02-23T09:53:13.427Z,25
2023-02-23T09:54:13.436Z,24
2023-02-23T09:55:13.441Z,24
2023-02-23T09:56:13.476Z,24
2023-02-23T09:57:13.434Z,24
2023-02-23T09:58:13.464Z,24
2023-02-23T09:59:13.431Z,24
2023-02-23T10:00:13.442Z,26
2023-02-23T10:01:13.482Z,23
2023-02-23T10:02:13.439Z,24
2023-02-23T10:03:13.444Z,23
2023-02-23T10:04:13.438Z,23
2023-02-23T10:05:13.518Z,23
2023-02-23T10:06:13.433Z,23
2023-02-23T10:07:13.432Z,24
2023-02-23T10:08:13.439Z,23
2023-02-23T10:09:13.450Z,23
2023-02-23T10:10:13.503Z,22
2023-02-23T10:11:13.441Z,22
2023-02-23T10:12:13.442Z,24
2023-02-23T10:13:13.448Z,22
2023-02-23T10:14:13.441Z,23
2023-02-23T10:15:13.440Z,22
2023-02-23T10:16:13.518Z,22
2023-02-23T10:17:13.439Z,22
2023-02-23T10:18:13.437Z,21
2023-02-23T10:19:13.437Z,22
2023-02-23T10:20:13.448Z,23
2023-02-23T10:21:13.446Z,22
2023-02-23T10:22:13.460Z,22
2023-02-23T10:23:13.457Z,21
2023-02-23T10:24:13.447Z,22
2023-02-23T10:25:13.448Z,22
2023-02-23T10:26:13.450Z,23
2023-02-23T10:27:13.439Z,22
2023-02-23T10:28:13.458Z,24
2023-02-23T10:29:13.473Z,23
2023-02-23T10:30:13.443Z,24
2023-02-23T10:31:13.613Z,24
2023-02-23T10:32:13.590Z,22
2023-02-23T10:33:13.443Z,22
2023-02-23T10:34:13.469Z,22
2023-02-23T10:35:13.451Z,23
2023-02-23T10:36:13.964Z,23
2023-02-23T10:37:13.447Z,24
2023-02-23T10:38:13.451Z,23
2023-02-23T10:39:13.442Z,22
2023-02-23T10:40:13.470Z,22
2023-02-23T10:41:14.849Z,22
2023-02-23T10:42:13.450Z,23
2023-02-23T10:43:13.464Z,22
2023-02-23T10:44:16.993Z,22
2023-02-23T10:45:13.444Z,22
2023-02-23T10:46:13.471Z,23
2023-02-23T10:47:13.452Z,23
2023-02-23T10:48:13.557Z,22
2023-02-23T10:49:13.442Z,22
2023-02-23T10:50:13.437Z,23
2023-02-23T10:51:13.447Z,22
2023-02-23T10:52:13.582Z,24
2023-02-23T10:53:13.447Z,23
2023-02-23T10:54:13.444Z,23
2023-02-23T10:55:13.456Z,23
2023-02-23T10:56:13.456Z,22
2023-02-23T10:57:13.464Z,21
2023-02-23T10:58:13.438Z,24
2023-02-23T10:59:13.450Z,23
2023-02-23T11:00:13.487Z,20
2023-02-23T11:01:13.452Z,22
2023-02-23T11:02:13.469Z,21
2023-02-23T11:03:13.446Z,21
2023-02-23T11:04:13.511Z,21
2023-02-23T11:05:13.448Z,21
2023-02-23T11:06:14.106Z,21
2023-02-23T11:07:14.086Z,21
2023-02-23T11:08:14.036Z,21
2023-02-23T11:09:13.769Z,20
2023-02-23T11:10:13.641Z,22
2023-02-23T11:11:13.506Z,20
2023-02-23T11:12:13.448Z,20
2023-02-23T11:13:13.448Z,19
2023-02-23T11:14:13.445Z,21
2023-02-23T11:15:13.444Z,20
2023-02-23T11:16:13.618Z,20
2023-02-23T11:17:13.443Z,20
2023-02-23T11:18:13.448Z,20
2023-02-23T11:19:13.455Z,20
2023-02-23T11:20:13.450Z,18
2023-02-23T11:21:13.446Z,18
2023-02-23T11:22:13.438Z,19
2023-02-23T11:24:13.452Z,19
2023-02-23T11:25:13.451Z,18
2023-02-23T11:26:13.480Z,18
2023-02-23T11:27:13.437Z,19
2023-02-23T11:28:13.447Z,19
2023-02-23T11:29:13.440Z,17
2023-02-23T11:30:13.445Z,17
2023-02-23T11:31:13.515Z,18
2023-02-23T11:32:13.633Z,18
2023-02-23T11:33:13.441Z,17
2023-02-23T11:34:13.445Z,17
2023-02-23T11:35:13.453Z,17
2023-02-23T11:36:13.442Z,17
2023-02-23T11:37:13.450Z,17
2023-02-23T11:38:13.444Z,17
2023-02-23T11:39:13.603Z,17
2023-02-23T11:40:13.444Z,18
2023-02-23T11:41:13.443Z,17
2023-02-23T11:42:13.439Z,16
2023-02-23T11:43:13.454Z,17
2023-02-23T11:44:13.454Z,17
2023-02-23T11:45:13.513Z,17
2023-02-23T11:46:13.591Z,17
2023-02-23T11:47:13.520Z,16
2023-02-23T11:48:13.449Z,17
2023-02-23T11:49:13.437Z,17
2023-02-23T11:50:13.438Z,17
2023-02-23T11:51:13.463Z,17
2023-02-23T11:52:13.450Z,18
2023-02-23T11:53:13.453Z,18
2023-02-23T11:54:13.454Z,17
2023-02-23T11:55:13.443Z,17
2023-02-23T11:56:13.454Z,17
2023-02-23T11:57:13.441Z,18
2023-02-23T11:58:13.454Z,17
2023-02-23T11:59:13.458Z,18
2023-02-23T12:00:13.443Z,17
2023-02-23T12:01:13.450Z,18
2023-02-23T12:02:13.450Z,18
2023-02-23T12:03:13.492Z,18
2023-02-23T12:04:13.449Z,19
2023-02-23T12:05:13.505Z,17
2023-02-23T12:06:13.482Z,18
2023-02-23T12:07:13.454Z,18
2023-02-23T12:08:13.479Z,19
2023-02-23T12:09:13.454Z,19
2023-02-23T12:10:13.456Z,19
2023-02-23T12:11:13.491Z,19
2023-02-23T12:12:13.456Z,19
2023-02-23T12:13:13.553Z,18
2023-02-23T12:14:13.453Z,18
2023-02-23T12:15:13.452Z,18
2023-02-23T12:16:13.521Z,17
2023-02-23T12:17:13.450Z,18
2023-02-23T12:18:13.486Z,18
2023-02-23T12:19:13.452Z,18
2023-02-23T12:20:13.450Z,18
2023-02-23T12:21:13.455Z,18
2023-02-23T12:22:13.449Z,18
2023-02-23T12:23:13.467Z,19
2023-02-23T12:24:13.452Z,18
2023-02-23T12:25:13.467Z,18
2023-02-23T12:26:13.972Z,19
2023-02-23T12:27:13.457Z,19
2023-02-23T12:28:18.937Z,18
2023-02-23T12:29:13.453Z,18
2023-02-23T12:30:13.449Z,19
2023-02-23T12:31:13.459Z,19
2023-02-23T12:32:13.534Z,19
2023-02-23T12:33:13.458Z,18
2023-02-23T12:34:13.449Z,21
2023-02-23T12:35:13.456Z,21
2023-02-23T12:36:13.449Z,20
2023-02-23T12:37:13.452Z,21
2023-02-23T12:38:13.452Z,21
2023-02-23T12:39:13.448Z,20
2023-02-23T12:40:13.598Z,20
2023-02-23T12:41:13.467Z,19
2023-02-23T12:42:13.446Z,20
2023-02-23T12:43:13.464Z,20
2023-02-23T12:44:13.454Z,20
2023-02-23T12:45:13.467Z,19
2023-02-23T12:46:13.526Z,20
2023-02-23T12:47:13.446Z,19
2023-02-23T12:48:13.454Z,20
2023-02-23T12:49:13.510Z,19
2023-02-23T12:50:13.604Z,20
2023-02-23T12:51:13.458Z,19
2023-02-23T12:52:13.446Z,20
2023-02-23T12:53:13.444Z,20
2023-02-23T12:54:13.449Z,18
2023-02-23T12:55:13.437Z,19
2023-02-23T12:56:13.450Z,19
2023-02-23T12:57:13.448Z,20
2023-02-23T12:58:13.450Z,19
2023-02-23T12:59:13.467Z,19
2023-02-23T13:00:13.626Z,19
2023-02-23T13:01:13.497Z,19
2023-02-23T13:02:13.500Z,17
2023-02-23T13:03:13.459Z,17
2023-02-23T13:04:13.459Z,15
2023-02-23T13:05:13.454Z,16
2023-02-23T13:06:13.460Z,16
2023-02-23T13:07:13.453Z,15
2023-02-23T13:08:14.056Z,16
2023-02-23T13:09:13.483Z,14
2023-02-23T13:10:13.454Z,15
2023-02-23T13:11:13.456Z,15
2023-02-23T13:12:13.481Z,16
2023-02-23T13:13:13.463Z,15
2023-02-23T13:14:13.462Z,16
2023-02-23T13:15:13.473Z,16
2023-02-23T13:16:13.554Z,17
2023-02-23T13:17:13.467Z,17
2023-02-23T13:18:13.479Z,20
2023-02-23T13:19:13.459Z,18
2023-02-23T13:20:13.591Z,17
2023-02-23T13:21:13.454Z,15
2023-02-23T13:22:13.468Z,16
2023-02-23T13:23:13.463Z,15
2023-02-23T13:24:13.463Z,15
2023-02-23T13:25:13.462Z,15
2023-02-23T13:26:13.464Z,17
2023-02-23T13:27:13.460Z,16
2023-02-23T13:28:13.461Z,14
2023-02-23T13:29:13.470Z,14
2023-02-23T13:30:13.478Z,16
2023-02-23T13:31:13.632Z,15
2023-02-23T13:32:13.652Z,14
2023-02-23T13:33:13.464Z,14
2023-02-23T13:34:13.463Z,14
2023-02-23T13:35:13.461Z,14
2023-02-23T13:36:13.462Z,14
2023-02-23T13:37:13.467Z,14
2023-02-23T13:38:13.469Z,14
2023-02-23T13:39:18.738Z,14
2023-02-23T13:41:13.454Z,15
2023-02-23T13:42:13.457Z,14
2023-02-23T13:43:13.453Z,13
2023-02-23T13:44:13.464Z,15
2023-02-23T13:45:13.463Z,14
2023-02-23T13:46:13.491Z,14
2023-02-23T13:48:13.473Z,14
2023-02-23T13:49:13.464Z,14
2023-02-23T13:50:13.459Z,15
2023-02-23T13:51:13.481Z,13
2023-02-23T13:52:13.461Z,12
2023-02-23T13:53:13.453Z,14
2023-02-23T13:54:13.470Z,14
2023-02-23T13:55:13.447Z,13
2023-02-23T13:56:13.463Z,13
2023-02-23T13:57:13.467Z,13
2023-02-23T13:58:13.459Z,13
2023-02-23T13:59:13.457Z,13
2023-02-23T14:00:13.487Z,13
2023-02-23T14:01:13.531Z,14
2023-02-23T14:02:15.388Z,13
2023-02-23T14:03:13.496Z,13
2023-02-23T14:04:13.462Z,14
2023-02-23T14:05:13.458Z,14
2023-02-23T14:06:13.452Z,14
2023-02-23T14:07:13.464Z,15
2023-02-23T14:08:14.153Z,14
2023-02-23T14:09:13.468Z,13
2023-02-23T14:10:13.591Z,13
2023-02-23T14:11:13.462Z,14
2023-02-23T14:12:13.457Z,13
2023-02-23T14:13:13.471Z,15
2023-02-23T14:14:13.456Z,14
2023-02-23T14:15:13.459Z,15
2023-02-23T14:16:13.523Z,14
2023-02-23T14:17:13.458Z,14
2023-02-23T14:18:13.458Z,14
2023-02-23T14:19:13.469Z,14
2023-02-23T14:20:24.240Z,13
2023-02-23T14:21:13.476Z,13
2023-02-23T14:22:13.592Z,13
2023-02-23T14:23:13.471Z,14
2023-02-23T14:24:13.477Z,13